Terminal Aerodrome Forecast
Issued by NWS Spokane, WA

Home | Current Version | Previous Version | Text Only | Print | Product List | Glossary On
Versions: 1 2 3 4 5 6 7 8 9 10 11 12 13 14 15 16 17 18 19 20 21 22 23 24 25 26 27 28 29 30 31 32 33 34 35 36 37 38 39 40 41 42 43 44 45 46 47
000
FTUS46 KOTX 201136
TAFGEG
TAF
KGEG 201136Z 2012/2112 13005KT P6SM SCT015 OVC100
     FM201330 VRB03KT 2SM -RA BR OVC015
      TEMPO 2016/2020 1/2SM -RA FG OVC007
     FM202100 15009KT 3SM -RA BR OVC005
     FM210600 21015KT 1SM -RA BR OVC003=

USA.gov is the U.S. government's official web portal to all federal, state and local government web resources and services.